sensor_id;sensor_type;location;lat;lon;timestamp;P1;durP1;ratioP1;P2;durP2;ratioP2
70450;SDS011;58869;51.982;4.450;2023-07-13T00:00:07;8.16;;;6.30;;
70450;SDS011;58869;51.982;4.450;2023-07-13T00:02:35;7.85;;;6.06;;
70450;SDS011;58869;51.982;4.450;2023-07-13T00:05:01;8.05;;;6.11;;
70450;SDS011;58869;51.982;4.450;2023-07-13T00:07:26;7.31;;;5.53;;
70450;SDS011;58869;51.982;4.450;2023-07-13T00:09:52;7.55;;;5.75;;
70450;SDS011;58869;51.982;4.450;2023-07-13T00:12:22;7.07;;;5.30;;
70450;SDS011;58869;51.982;4.450;2023-07-13T00:14:49;7.61;;;5.69;;
70450;SDS011;58869;51.982;4.450;2023-07-13T00:17:15;7.28;;;5.46;;
70450;SDS011;58869;51.982;4.450;2023-07-13T00:19:41;7.50;;;5.48;;
70450;SDS011;58869;51.982;4.450;2023-07-13T00:22:07;7.66;;;5.61;;
70450;SDS011;58869;51.982;4.450;2023-07-13T00:24:34;7.17;;;5.32;;
70450;SDS011;58869;51.982;4.450;2023-07-13T00:27:01;7.43;;;5.47;;
70450;SDS011;58869;51.982;4.450;2023-07-13T00:29:27;6.89;;;5.10;;
70450;SDS011;58869;51.982;4.450;2023-07-13T00:31:55;6.54;;;4.84;;
70450;SDS011;58869;51.982;4.450;2023-07-13T00:34:22;7.23;;;5.21;;
70450;SDS011;58869;51.982;4.450;2023-07-13T00:37:03;7.03;;;5.20;;
70450;SDS011;58869;51.982;4.450;2023-07-13T00:39:38;6.73;;;4.95;;
70450;SDS011;58869;51.982;4.450;2023-07-13T00:42:06;7.08;;;5.15;;
70450;SDS011;58869;51.982;4.450;2023-07-13T00:44:41;7.25;;;5.26;;
70450;SDS011;58869;51.982;4.450;2023-07-13T00:47:15;7.49;;;5.33;;
70450;SDS011;58869;51.982;4.450;2023-07-13T00:49:41;6.68;;;4.93;;
70450;SDS011;58869;51.982;4.450;2023-07-13T00:52:13;6.59;;;4.91;;
70450;SDS011;58869;51.982;4.450;2023-07-13T00:54:51;6.97;;;5.06;;
70450;SDS011;58869;51.982;4.450;2023-07-13T00:57:19;6.60;;;4.83;;
70450;SDS011;58869;51.982;4.450;2023-07-13T00:59:53;6.94;;;5.05;;
70450;SDS011;58869;51.982;4.450;2023-07-13T01:02:23;7.19;;;5.20;;
70450;SDS011;58869;51.982;4.450;2023-07-13T01:04:49;6.52;;;4.84;;
70450;SDS011;58869;51.982;4.450;2023-07-13T01:07:15;7.21;;;5.27;;
70450;SDS011;58869;51.982;4.450;2023-07-13T01:09:50;7.53;;;5.59;;
70450;SDS011;58869;51.982;4.450;2023-07-13T01:12:16;6.30;;;4.75;;
70450;SDS011;58869;51.982;4.450;2023-07-13T01:14:42;6.29;;;4.72;;
70450;SDS011;58869;51.982;4.450;2023-07-13T01:17:26;6.11;;;4.63;;
70450;SDS011;58869;51.982;4.450;2023-07-13T01:19:52;5.95;;;4.43;;
70450;SDS011;58869;51.982;4.450;2023-07-13T01:22:30;5.62;;;4.23;;
70450;SDS011;58869;51.982;4.450;2023-07-13T01:25:04;5.43;;;4.06;;
70450;SDS011;58869;51.982;4.450;2023-07-13T01:27:30;4.51;;;3.40;;
70450;SDS011;58869;51.982;4.450;2023-07-13T01:30:07;4.80;;;3.66;;
70450;SDS011;58869;51.982;4.450;2023-07-13T01:32:33;4.25;;;3.24;;
70450;SDS011;58869;51.982;4.450;2023-07-13T01:35:14;4.27;;;3.28;;
70450;SDS011;58869;51.982;4.450;2023-07-13T01:37:42;4.13;;;3.12;;
70450;SDS011;58869;51.982;4.450;2023-07-13T01:40:13;3.55;;;2.73;;
70450;SDS011;58869;51.982;4.450;2023-07-13T01:42:40;3.03;;;2.40;;
70450;SDS011;58869;51.982;4.450;2023-07-13T01:45:21;2.89;;;2.31;;
70450;SDS011;58869;51.982;4.450;2023-07-13T01:47:47;2.63;;;2.13;;
70450;SDS011;58869;51.982;4.450;2023-07-13T01:50:23;2.58;;;2.10;;
70450;SDS011;58869;51.982;4.450;2023-07-13T01:52:50;2.57;;;2.11;;
70450;SDS011;58869;51.982;4.450;2023-07-13T01:55:15;2.41;;;1.98;;
70450;SDS011;58869;51.982;4.450;2023-07-13T01:57:41;2.14;;;1.78;;
70450;SDS011;58869;51.982;4.450;2023-07-13T02:00:24;2.56;;;2.10;;
70450;SDS011;58869;51.982;4.450;2023-07-13T02:03:05;2.45;;;2.01;;
70450;SDS011;58869;51.982;4.450;2023-07-13T02:05:30;2.90;;;2.36;;
70450;SDS011;58869;51.982;4.450;2023-07-13T02:08:08;2.68;;;2.21;;
70450;SDS011;58869;51.982;4.450;2023-07-13T02:10:37;2.97;;;2.42;;
70450;SDS011;58869;51.982;4.450;2023-07-13T02:13:14;3.15;;;2.58;;
70450;SDS011;58869;51.982;4.450;2023-07-13T02:15:42;3.77;;;3.00;;
70450;SDS011;58869;51.982;4.450;2023-07-13T02:18:14;4.45;;;3.35;;
70450;SDS011;58869;51.982;4.450;2023-07-13T02:20:42;4.82;;;3.62;;
70450;SDS011;58869;51.982;4.450;2023-07-13T02:23:14;4.46;;;3.45;;
70450;SDS011;58869;51.982;4.450;2023-07-13T02:25:40;4.58;;;3.57;;
70450;SDS011;58869;51.982;4.450;2023-07-13T02:28:18;5.07;;;3.94;;
70450;SDS011;58869;51.982;4.450;2023-07-13T02:30:47;5.49;;;4.12;;
70450;SDS011;58869;51.982;4.450;2023-07-13T02:33:12;5.49;;;4.13;;
70450;SDS011;58869;51.982;4.450;2023-07-13T02:35:38;6.50;;;4.88;;
70450;SDS011;58869;51.982;4.450;2023-07-13T02:38:13;5.99;;;4.56;;
70450;SDS011;58869;51.982;4.450;2023-07-13T02:40:38;6.38;;;4.85;;
70450;SDS011;58869;51.982;4.450;2023-07-13T02:43:09;6.90;;;5.22;;
70450;SDS011;58869;51.982;4.450;2023-07-13T02:45:47;7.34;;;5.45;;
70450;SDS011;58869;51.982;4.450;2023-07-13T02:48:24;7.28;;;5.45;;
70450;SDS011;58869;51.982;4.450;2023-07-13T02:50:52;7.11;;;5.40;;
70450;SDS011;58869;51.982;4.450;2023-07-13T02:53:49;6.68;;;5.04;;
70450;SDS011;58869;51.982;4.450;2023-07-13T02:56:14;7.63;;;5.64;;
70450;SDS011;58869;51.982;4.450;2023-07-13T02:58:42;6.98;;;5.23;;
70450;SDS011;58869;51.982;4.450;2023-07-13T03:01:19;6.57;;;5.08;;
70450;SDS011;58869;51.982;4.450;2023-07-13T03:03:46;6.85;;;5.27;;
70450;SDS011;58869;51.982;4.450;2023-07-13T03:06:34;7.81;;;5.86;;
70450;SDS011;58869;51.982;4.450;2023-07-13T03:09:10;7.90;;;5.93;;
70450;SDS011;58869;51.982;4.450;2023-07-13T03:11:41;7.78;;;5.80;;
70450;SDS011;58869;51.982;4.450;2023-07-13T03:14:13;7.27;;;5.44;;
70450;SDS011;58869;51.982;4.450;2023-07-13T03:16:47;7.44;;;5.50;;
70450;SDS011;58869;51.982;4.450;2023-07-13T03:19:13;7.16;;;5.32;;
70450;SDS011;58869;51.982;4.450;2023-07-13T03:21:39;7.02;;;5.13;;
70450;SDS011;58869;51.982;4.450;2023-07-13T03:24:05;7.33;;;5.46;;
70450;SDS011;58869;51.982;4.450;2023-07-13T03:26:38;7.06;;;5.36;;
70450;SDS011;58869;51.982;4.450;2023-07-13T03:29:25;8.15;;;5.99;;
70450;SDS011;58869;51.982;4.450;2023-07-13T03:31:49;6.87;;;5.22;;
70450;SDS011;58869;51.982;4.450;2023-07-13T03:34:27;7.76;;;5.72;;
70450;SDS011;58869;51.982;4.450;2023-07-13T03:36:55;6.90;;;5.14;;
70450;SDS011;58869;51.982;4.450;2023-07-13T03:42:43;7.72;;;5.65;;
70450;SDS011;58869;51.982;4.450;2023-07-13T03:45:12;6.98;;;5.15;;
70450;SDS011;58869;51.982;4.450;2023-07-13T03:47:37;6.82;;;5.12;;
70450;SDS011;58869;51.982;4.450;2023-07-13T03:50:12;6.44;;;4.98;;
70450;SDS011;58869;51.982;4.450;2023-07-13T03:52:41;6.59;;;5.10;;
70450;SDS011;58869;51.982;4.450;2023-07-13T03:55:25;6.88;;;5.16;;
70450;SDS011;58869;51.982;4.450;2023-07-13T04:01:20;6.89;;;5.15;;
70450;SDS011;58869;51.982;4.450;2023-07-13T04:06:40;6.10;;;4.80;;
70450;SDS011;58869;51.982;4.450;2023-07-13T04:09:18;6.22;;;4.87;;
70450;SDS011;58869;51.982;4.450;2023-07-13T04:14:37;6.16;;;4.79;;
70450;SDS011;58869;51.982;4.450;2023-07-13T04:17:17;6.31;;;4.89;;
70450;SDS011;58869;51.982;4.450;2023-07-13T04:19:52;6.64;;;5.24;;
70450;SDS011;58869;51.982;4.450;2023-07-13T04:22:18;6.54;;;5.11;;
70450;SDS011;58869;51.982;4.450;2023-07-13T04:24:54;8.25;;;6.41;;
70450;SDS011;58869;51.982;4.450;2023-07-13T04:27:20;9.24;;;7.31;;
70450;SDS011;58869;51.982;4.450;2023-07-13T04:30:07;7.11;;;5.76;;
70450;SDS011;58869;51.982;4.450;2023-07-13T04:35:04;5.96;;;4.84;;
70450;SDS011;58869;51.982;4.450;2023-07-13T04:37:30;5.57;;;4.44;;
70450;SDS011;58869;51.982;4.450;2023-07-13T04:40:06;5.20;;;4.15;;
70450;SDS011;58869;51.982;4.450;2023-07-13T04:45:02;4.54;;;3.78;;
70450;SDS011;58869;51.982;4.450;2023-07-13T04:47:29;4.56;;;3.73;;
70450;SDS011;58869;51.982;4.450;2023-07-13T04:54:08;4.37;;;3.60;;
70450;SDS011;58869;51.982;4.450;2023-07-13T04:56:52;4.95;;;3.99;;
70450;SDS011;58869;51.982;4.450;2023-07-13T04:59:38;4.42;;;3.68;;
70450;SDS011;58869;51.982;4.450;2023-07-13T05:02:13;4.59;;;3.90;;
70450;SDS011;58869;51.982;4.450;2023-07-13T05:07:49;3.91;;;3.36;;
70450;SDS011;58869;51.982;4.450;2023-07-13T05:10:15;4.05;;;3.60;;
70450;SDS011;58869;51.982;4.450;2023-07-13T05:16:12;3.73;;;3.33;;
70450;SDS011;58869;51.982;4.450;2023-07-13T05:18:56;3.43;;;3.13;;
70450;SDS011;58869;51.982;4.450;2023-07-13T05:24:18;3.86;;;3.53;;
70450;SDS011;58869;51.982;4.450;2023-07-13T05:26:55;3.65;;;3.36;;
70450;SDS011;58869;51.982;4.450;2023-07-13T05:29:36;3.52;;;3.29;;
70450;SDS011;58869;51.982;4.450;2023-07-13T05:32:01;3.67;;;3.41;;
70450;SDS011;58869;51.982;4.450;2023-07-13T05:34:37;3.79;;;3.54;;
70450;SDS011;58869;51.982;4.450;2023-07-13T05:37:15;3.97;;;3.72;;
70450;SDS011;58869;51.982;4.450;2023-07-13T05:39:43;3.69;;;3.43;;
70450;SDS011;58869;51.982;4.450;2023-07-13T05:42:12;4.07;;;3.79;;
70450;SDS011;58869;51.982;4.450;2023-07-13T05:51:29;3.94;;;3.69;;
70450;SDS011;58869;51.982;4.450;2023-07-13T05:54:00;3.60;;;3.37;;
70450;SDS011;58869;51.982;4.450;2023-07-13T05:59:50;3.64;;;3.39;;
70450;SDS011;58869;51.982;4.450;2023-07-13T06:02:17;4.16;;;3.88;;
70450;SDS011;58869;51.982;4.450;2023-07-13T06:08:16;3.44;;;3.33;;
70450;SDS011;58869;51.982;4.450;2023-07-13T06:10:41;3.68;;;3.63;;
70450;SDS011;58869;51.982;4.450;2023-07-13T06:13:07;4.02;;;3.76;;
70450;SDS011;58869;51.982;4.450;2023-07-13T06:21:53;4.10;;;3.81;;
70450;SDS011;58869;51.982;4.450;2023-07-13T06:30:09;3.84;;;3.63;;
70450;SDS011;58869;51.982;4.450;2023-07-13T06:36:10;3.84;;;3.64;;
70450;SDS011;58869;51.982;4.450;2023-07-13T06:38:36;3.36;;;3.22;;
70450;SDS011;58869;51.982;4.450;2023-07-13T06:41:12;3.83;;;3.68;;
70450;SDS011;58869;51.982;4.450;2023-07-13T06:46:38;3.59;;;3.45;;
70450;SDS011;58869;51.982;4.450;2023-07-13T06:52:24;3.79;;;3.66;;
70450;SDS011;58869;51.982;4.450;2023-07-13T06:57:38;3.97;;;3.79;;
70450;SDS011;58869;51.982;4.450;2023-07-13T07:00:14;3.45;;;3.38;;
70450;SDS011;58869;51.982;4.450;2023-07-13T07:03:15;3.68;;;3.59;;
70450;SDS011;58869;51.982;4.450;2023-07-13T07:38:54;3.83;;;3.71;;
70450;SDS011;58869;51.982;4.450;2023-07-13T07:41:37;3.87;;;3.79;;
70450;SDS011;58869;51.982;4.450;2023-07-13T07:44:03;3.60;;;3.48;;
70450;SDS011;58869;51.982;4.450;2023-07-13T07:49:40;4.01;;;3.98;;
70450;SDS011;58869;51.982;4.450;2023-07-13T07:52:06;4.07;;;4.01;;
70450;SDS011;58869;51.982;4.450;2023-07-13T07:54:41;3.93;;;3.87;;
70450;SDS011;58869;51.982;4.450;2023-07-13T07:57:06;3.90;;;3.87;;
70450;SDS011;58869;51.982;4.450;2023-07-13T07:59:40;3.64;;;3.64;;
70450;SDS011;58869;51.982;4.450;2023-07-13T08:04:44;3.72;;;3.72;;
70450;SDS011;58869;51.982;4.450;2023-07-13T08:10:51;3.72;;;3.72;;
70450;SDS011;58869;51.982;4.450;2023-07-13T08:13:38;3.48;;;3.48;;
70450;SDS011;58869;51.982;4.450;2023-07-13T08:16:09;3.82;;;3.82;;
70450;SDS011;58869;51.982;4.450;2023-07-13T08:18:55;3.57;;;3.56;;
70450;SDS011;58869;51.982;4.450;2023-07-13T08:21:38;3.82;;;3.82;;
70450;SDS011;58869;51.982;4.450;2023-07-13T08:24:38;3.18;;;3.18;;
70450;SDS011;58869;51.982;4.450;2023-07-13T08:27:08;3.50;;;3.50;;
70450;SDS011;58869;51.982;4.450;2023-07-13T08:32:43;3.58;;;3.58;;
70450;SDS011;58869;51.982;4.450;2023-07-13T08:38:17;3.53;;;3.53;;
70450;SDS011;58869;51.982;4.450;2023-07-13T08:40:53;3.49;;;3.49;;
70450;SDS011;58869;51.982;4.450;2023-07-13T08:50:17;3.47;;;3.39;;
70450;SDS011;58869;51.982;4.450;2023-07-13T08:52:58;3.41;;;3.38;;
70450;SDS011;58869;51.982;4.450;2023-07-13T08:58:54;3.32;;;3.32;;
70450;SDS011;58869;51.982;4.450;2023-07-13T09:01:47;3.38;;;3.38;;
70450;SDS011;58869;51.982;4.450;2023-07-13T09:20:39;3.89;;;3.89;;
70450;SDS011;58869;51.982;4.450;2023-07-13T09:26:16;3.00;;;2.91;;
70450;SDS011;58869;51.982;4.450;2023-07-13T09:28:46;3.03;;;2.92;;
70450;SDS011;58869;51.982;4.450;2023-07-13T09:31:38;3.32;;;3.27;;
70450;SDS011;58869;51.982;4.450;2023-07-13T09:34:27;3.23;;;3.22;;
70450;SDS011;58869;51.982;4.450;2023-07-13T09:37:13;3.37;;;3.37;;
70450;SDS011;58869;51.982;4.450;2023-07-13T09:39:49;3.25;;;3.25;;
70450;SDS011;58869;51.982;4.450;2023-07-13T09:42:37;4.08;;;4.08;;
70450;SDS011;58869;51.982;4.450;2023-07-13T09:45:03;4.12;;;4.12;;
70450;SDS011;58869;51.982;4.450;2023-07-13T10:03:51;4.00;;;4.00;;
70450;SDS011;58869;51.982;4.450;2023-07-13T10:35:20;3.55;;;3.46;;
70450;SDS011;58869;51.982;4.450;2023-07-13T10:41:11;3.91;;;3.91;;
70450;SDS011;58869;51.982;4.450;2023-07-13T10:44:00;3.27;;;3.27;;
70450;SDS011;58869;51.982;4.450;2023-07-13T10:47:25;3.37;;;3.37;;
70450;SDS011;58869;51.982;4.450;2023-07-13T11:23:20;3.08;;;3.08;;
70450;SDS011;58869;51.982;4.450;2023-07-13T11:55:37;3.18;;;3.18;;
70450;SDS011;58869;51.982;4.450;2023-07-13T12:12:02;3.06;;;3.06;;
70450;SDS011;58869;51.982;4.450;2023-07-13T12:15:11;3.27;;;3.27;;
70450;SDS011;58869;51.982;4.450;2023-07-13T12:24:11;3.03;;;3.03;;
70450;SDS011;58869;51.982;4.450;2023-07-13T12:43:34;2.36;;;2.36;;
70450;SDS011;58869;51.982;4.450;2023-07-13T12:46:14;2.61;;;2.61;;
70450;SDS011;58869;51.982;4.450;2023-07-13T12:56:05;2.12;;;2.12;;
70450;SDS011;58869;51.982;4.450;2023-07-13T13:22:21;2.56;;;2.55;;
70450;SDS011;58869;51.982;4.450;2023-07-13T13:51:01;2.06;;;2.06;;
70450;SDS011;58869;51.982;4.450;2023-07-13T14:18:35;2.07;;;2.07;;
70450;SDS011;58869;51.982;4.450;2023-07-13T14:21:11;2.12;;;2.12;;
70450;SDS011;58869;51.982;4.450;2023-07-13T14:23:47;2.01;;;2.01;;
70450;SDS011;58869;51.982;4.450;2023-07-13T14:26:15;2.01;;;2.01;;
70450;SDS011;58869;51.982;4.450;2023-07-13T14:38:52;2.16;;;2.16;;
70450;SDS011;58869;51.982;4.450;2023-07-13T14:51:42;3.17;;;3.17;;
70450;SDS011;58869;51.982;4.450;2023-07-13T14:54:35;2.53;;;2.53;;
70450;SDS011;58869;51.982;4.450;2023-07-13T15:30:10;2.41;;;2.41;;
70450;SDS011;58869;51.982;4.450;2023-07-13T15:32:41;2.48;;;2.48;;
70450;SDS011;58869;51.982;4.450;2023-07-13T15:38:39;2.39;;;2.39;;
70450;SDS011;58869;51.982;4.450;2023-07-13T15:45:14;2.36;;;2.36;;
70450;SDS011;58869;51.982;4.450;2023-07-13T15:47:42;2.66;;;2.61;;
70450;SDS011;58869;51.982;4.450;2023-07-13T15:50:24;2.52;;;2.50;;
70450;SDS011;58869;51.982;4.450;2023-07-13T15:55:55;2.87;;;2.77;;
70450;SDS011;58869;51.982;4.450;2023-07-13T16:11:12;2.55;;;2.45;;
70450;SDS011;58869;51.982;4.450;2023-07-13T16:23:01;2.55;;;2.47;;
70450;SDS011;58869;51.982;4.450;2023-07-13T16:25:30;2.40;;;2.40;;
70450;SDS011;58869;51.982;4.450;2023-07-13T16:34:14;2.79;;;2.67;;
70450;SDS011;58869;51.982;4.450;2023-07-13T16:40:18;2.47;;;2.40;;
70450;SDS011;58869;51.982;4.450;2023-07-13T16:46:11;2.62;;;2.46;;
70450;SDS011;58869;51.982;4.450;2023-07-13T16:49:20;2.70;;;2.61;;
70450;SDS011;58869;51.982;4.450;2023-07-13T16:52:34;2.56;;;2.45;;
70450;SDS011;58869;51.982;4.450;2023-07-13T16:54:59;2.57;;;2.43;;
70450;SDS011;58869;51.982;4.450;2023-07-13T17:01:06;2.57;;;2.50;;
70450;SDS011;58869;51.982;4.450;2023-07-13T17:06:51;2.46;;;2.38;;
70450;SDS011;58869;51.982;4.450;2023-07-13T17:09:27;2.38;;;2.33;;
70450;SDS011;58869;51.982;4.450;2023-07-13T17:12:01;2.28;;;2.22;;
70450;SDS011;58869;51.982;4.450;2023-07-13T17:14:33;2.62;;;2.48;;
70450;SDS011;58869;51.982;4.450;2023-07-13T17:17:05;2.81;;;2.63;;
70450;SDS011;58869;51.982;4.450;2023-07-13T17:19:55;2.82;;;2.66;;
70450;SDS011;58869;51.982;4.450;2023-07-13T17:22:27;2.68;;;2.54;;
70450;SDS011;58869;51.982;4.450;2023-07-13T17:24:57;2.73;;;2.58;;
70450;SDS011;58869;51.982;4.450;2023-07-13T17:27:35;2.30;;;2.20;;
70450;SDS011;58869;51.982;4.450;2023-07-13T17:30:12;2.50;;;2.38;;
70450;SDS011;58869;51.982;4.450;2023-07-13T17:33:04;2.32;;;2.20;;
70450;SDS011;58869;51.982;4.450;2023-07-13T17:35:39;2.35;;;2.19;;
70450;SDS011;58869;51.982;4.450;2023-07-13T17:38:04;2.24;;;2.05;;
70450;SDS011;58869;51.982;4.450;2023-07-13T17:41:09;6.76;;;6.49;;
70450;SDS011;58869;51.982;4.450;2023-07-13T17:43:39;8.19;;;8.11;;
70450;SDS011;58869;51.982;4.450;2023-07-13T17:49:08;6.95;;;6.89;;
70450;SDS011;58869;51.982;4.450;2023-07-13T17:52:00;4.06;;;3.96;;
70450;SDS011;58869;51.982;4.450;2023-07-13T17:54:36;4.56;;;4.44;;
70450;SDS011;58869;51.982;4.450;2023-07-13T17:57:02;3.75;;;3.65;;
70450;SDS011;58869;51.982;4.450;2023-07-13T17:59:28;3.77;;;3.69;;
70450;SDS011;58869;51.982;4.450;2023-07-13T18:02:09;3.40;;;3.35;;
70450;SDS011;58869;51.982;4.450;2023-07-13T18:05:02;3.34;;;3.23;;
70450;SDS011;58869;51.982;4.450;2023-07-13T18:07:45;2.98;;;2.88;;
70450;SDS011;58869;51.982;4.450;2023-07-13T18:17:38;2.56;;;2.35;;
70450;SDS011;58869;51.982;4.450;2023-07-13T18:21:00;2.64;;;2.44;;
70450;SDS011;58869;51.982;4.450;2023-07-13T18:23:26;2.91;;;2.64;;
70450;SDS011;58869;51.982;4.450;2023-07-13T18:26:10;2.82;;;2.54;;
70450;SDS011;58869;51.982;4.450;2023-07-13T18:49:05;1.76;;;1.66;;
70450;SDS011;58869;51.982;4.450;2023-07-13T18:51:45;1.95;;;1.82;;
70450;SDS011;58869;51.982;4.450;2023-07-13T18:54:31;1.98;;;1.82;;
70450;SDS011;58869;51.982;4.450;2023-07-13T18:57:08;2.20;;;2.03;;
70450;SDS011;58869;51.982;4.450;2023-07-13T18:59:34;2.15;;;1.93;;
70450;SDS011;58869;51.982;4.450;2023-07-13T19:06:05;2.11;;;1.82;;
70450;SDS011;58869;51.982;4.450;2023-07-13T19:18:40;2.39;;;2.13;;
70450;SDS011;58869;51.982;4.450;2023-07-13T19:21:35;2.22;;;1.99;;
70450;SDS011;58869;51.982;4.450;2023-07-13T19:24:37;2.44;;;2.15;;
70450;SDS011;58869;51.982;4.450;2023-07-13T19:27:19;2.62;;;2.27;;
70450;SDS011;58869;51.982;4.450;2023-07-13T19:29:46;2.65;;;2.30;;
70450;SDS011;58869;51.982;4.450;2023-07-13T19:32:12;2.19;;;1.95;;
70450;SDS011;58869;51.982;4.450;2023-07-13T19:34:39;2.15;;;1.93;;
70450;SDS011;58869;51.982;4.450;2023-07-13T19:37:21;2.20;;;1.98;;
70450;SDS011;58869;51.982;4.450;2023-07-13T19:56:36;2.08;;;1.94;;
70450;SDS011;58869;51.982;4.450;2023-07-13T20:02:41;2.06;;;1.93;;
70450;SDS011;58869;51.982;4.450;2023-07-13T20:08:10;2.26;;;2.19;;
70450;SDS011;58869;51.982;4.450;2023-07-13T20:13:27;2.18;;;2.10;;
70450;SDS011;58869;51.982;4.450;2023-07-13T20:19:08;2.51;;;2.39;;
70450;SDS011;58869;51.982;4.450;2023-07-13T20:27:46;2.37;;;2.31;;
70450;SDS011;58869;51.982;4.450;2023-07-13T20:30:22;2.24;;;2.16;;
70450;SDS011;58869;51.982;4.450;2023-07-13T20:32:49;2.50;;;2.44;;
70450;SDS011;58869;51.982;4.450;2023-07-13T20:36:02;2.32;;;2.24;;
70450;SDS011;58869;51.982;4.450;2023-07-13T20:38:13;2.24;;;2.16;;
70450;SDS011;58869;51.982;4.450;2023-07-13T20:41:00;2.34;;;2.31;;
70450;SDS011;58869;51.982;4.450;2023-07-13T20:43:31;2.24;;;2.24;;
70450;SDS011;58869;51.982;4.450;2023-07-13T20:46:09;2.44;;;2.38;;
70450;SDS011;58869;51.982;4.450;2023-07-13T20:48:39;2.42;;;2.30;;
70450;SDS011;58869;51.982;4.450;2023-07-13T20:51:34;2.53;;;2.39;;
70450;SDS011;58869;51.982;4.450;2023-07-13T20:54:02;2.57;;;2.41;;
70450;SDS011;58869;51.982;4.450;2023-07-13T20:56:31;2.67;;;2.53;;
70450;SDS011;58869;51.982;4.450;2023-07-13T20:59:12;2.60;;;2.43;;
70450;SDS011;58869;51.982;4.450;2023-07-13T21:01:37;2.54;;;2.39;;
70450;SDS011;58869;51.982;4.450;2023-07-13T21:04:11;2.81;;;2.67;;
70450;SDS011;58869;51.982;4.450;2023-07-13T21:06:39;2.67;;;2.56;;
70450;SDS011;58869;51.982;4.450;2023-07-13T21:09:20;2.56;;;2.48;;
70450;SDS011;58869;51.982;4.450;2023-07-13T21:11:46;2.95;;;2.82;;
70450;SDS011;58869;51.982;4.450;2023-07-13T21:14:12;2.90;;;2.74;;
70450;SDS011;58869;51.982;4.450;2023-07-13T21:16:37;2.82;;;2.66;;
70450;SDS011;58869;51.982;4.450;2023-07-13T21:19:03;2.92;;;2.77;;
70450;SDS011;58869;51.982;4.450;2023-07-13T21:21:31;3.10;;;2.96;;
70450;SDS011;58869;51.982;4.450;2023-07-13T21:24:17;3.00;;;2.79;;
70450;SDS011;58869;51.982;4.450;2023-07-13T21:26:43;2.86;;;2.69;;
70450;SDS011;58869;51.982;4.450;2023-07-13T21:29:09;3.01;;;2.81;;
70450;SDS011;58869;51.982;4.450;2023-07-13T21:34:53;2.97;;;2.84;;
70450;SDS011;58869;51.982;4.450;2023-07-13T21:37:20;3.06;;;2.87;;
70450;SDS011;58869;51.982;4.450;2023-07-13T21:39:50;3.22;;;3.01;;
70450;SDS011;58869;51.982;4.450;2023-07-13T21:42:37;3.43;;;3.14;;
70450;SDS011;58869;51.982;4.450;2023-07-13T21:45:04;3.82;;;3.50;;
70450;SDS011;58869;51.982;4.450;2023-07-13T21:47:52;3.29;;;3.02;;
70450;SDS011;58869;51.982;4.450;2023-07-13T21:50:20;3.29;;;3.05;;
70450;SDS011;58869;51.982;4.450;2023-07-13T21:53:38;3.53;;;3.27;;
70450;SDS011;58869;51.982;4.450;2023-07-13T21:56:03;3.03;;;2.84;;
70450;SDS011;58869;51.982;4.450;2023-07-13T21:58:38;3.47;;;3.24;;
70450;SDS011;58869;51.982;4.450;2023-07-13T22:01:17;3.27;;;3.09;;
70450;SDS011;58869;51.982;4.450;2023-07-13T22:03:46;3.19;;;3.04;;
70450;SDS011;58869;51.982;4.450;2023-07-13T22:06:22;3.06;;;2.93;;
70450;SDS011;58869;51.982;4.450;2023-07-13T22:08:58;3.37;;;3.19;;
70450;SDS011;58869;51.982;4.450;2023-07-13T22:11:24;3.49;;;3.30;;
70450;SDS011;58869;51.982;4.450;2023-07-13T22:14:08;3.39;;;3.22;;
70450;SDS011;58869;51.982;4.450;2023-07-13T22:16:34;3.38;;;3.24;;
70450;SDS011;58869;51.982;4.450;2023-07-13T22:19:19;3.14;;;3.02;;
70450;SDS011;58869;51.982;4.450;2023-07-13T22:22:05;3.41;;;3.22;;
70450;SDS011;58869;51.982;4.450;2023-07-13T22:24:43;3.42;;;3.23;;
70450;SDS011;58869;51.982;4.450;2023-07-13T22:27:12;3.46;;;3.34;;
70450;SDS011;58869;51.982;4.450;2023-07-13T22:29:37;3.69;;;3.58;;
70450;SDS011;58869;51.982;4.450;2023-07-13T22:32:03;3.73;;;3.55;;
70450;SDS011;58869;51.982;4.450;2023-07-13T22:34:28;4.10;;;3.88;;
70450;SDS011;58869;51.982;4.450;2023-07-13T22:36:54;4.28;;;4.09;;
70450;SDS011;58869;51.982;4.450;2023-07-13T22:39:22;4.42;;;4.32;;
70450;SDS011;58869;51.982;4.450;2023-07-13T22:41:52;3.97;;;3.89;;
70450;SDS011;58869;51.982;4.450;2023-07-13T22:44:19;4.16;;;4.09;;
70450;SDS011;58869;51.982;4.450;2023-07-13T22:49:59;3.91;;;3.83;;
70450;SDS011;58869;51.982;4.450;2023-07-13T22:52:28;3.86;;;3.78;;
70450;SDS011;58869;51.982;4.450;2023-07-13T22:57:38;3.79;;;3.75;;
70450;SDS011;58869;51.982;4.450;2023-07-13T23:00:04;3.64;;;3.59;;
70450;SDS011;58869;51.982;4.450;2023-07-13T23:02:34;3.89;;;3.83;;
70450;SDS011;58869;51.982;4.450;2023-07-13T23:05:00;4.18;;;4.11;;
70450;SDS011;58869;51.982;4.450;2023-07-13T23:07:30;3.95;;;3.85;;
70450;SDS011;58869;51.982;4.450;2023-07-13T23:09:56;3.96;;;3.94;;
70450;SDS011;58869;51.982;4.450;2023-07-13T23:12:22;3.83;;;3.79;;
70450;SDS011;58869;51.982;4.450;2023-07-13T23:14:47;3.87;;;3.85;;
70450;SDS011;58869;51.982;4.450;2023-07-13T23:17:13;4.02;;;4.01;;
70450;SDS011;58869;51.982;4.450;2023-07-13T23:19:39;3.87;;;3.87;;
70450;SDS011;58869;51.982;4.450;2023-07-13T23:22:05;3.78;;;3.78;;
70450;SDS011;58869;51.982;4.450;2023-07-13T23:24:46;3.99;;;3.98;;
70450;SDS011;58869;51.982;4.450;2023-07-13T23:27:11;3.59;;;3.58;;
70450;SDS011;58869;51.982;4.450;2023-07-13T23:29:37;3.73;;;3.65;;
70450;SDS011;58869;51.982;4.450;2023-07-13T23:32:03;3.67;;;3.63;;
70450;SDS011;58869;51.982;4.450;2023-07-13T23:34:29;3.43;;;3.42;;
70450;SDS011;58869;51.982;4.450;2023-07-13T23:36:57;3.40;;;3.40;;
70450;SDS011;58869;51.982;4.450;2023-07-13T23:39:23;3.97;;;3.97;;
70450;SDS011;58869;51.982;4.450;2023-07-13T23:41:49;3.59;;;3.59;;
70450;SDS011;58869;51.982;4.450;2023-07-13T23:44:15;3.77;;;3.77;;
70450;SDS011;58869;51.982;4.450;2023-07-13T23:46:45;3.66;;;3.63;;
70450;SDS011;58869;51.982;4.450;2023-07-13T23:52:00;3.63;;;3.57;;
70450;SDS011;58869;51.982;4.450;2023-07-13T23:54:29;3.78;;;3.74;;
70450;SDS011;58869;51.982;4.450;2023-07-13T23:56:57;3.70;;;3.70;;
70450;SDS011;58869;51.982;4.450;2023-07-13T23:59:23;3.67;;;3.64;;
